Details From OMDB - Dubai Intl
To OBBI - Bahrain Intl
Flight Number -
Tags Routegen Generated
Created
Modified
Stats Distance 261 nm / 484 km
Max Altitude 37,000 ft / 11,278 m
Waypoints 8
Social Downloads 1
Likes 0
Share VATSIM

Download

Looking for another format? Having issues loading an existing format? Contact us
Advertisement - Login to hide

Notes

Departing runway 30 OMDB. Arriving runway 12 OBBI. Advanced Generation Settings: Turn accuracy: 20 Altitude: 37000ft Smoothed angles: True Runway changes allowed: True Calculation order: Arrival --> Departure --> Intermediates Multipass intermediates: True

Route

OMDB +25.30_+055.28 +25.32_+055.22 +25.61_+053.85 +25.88_+052.47 +26.21_+050.78 +26.22_+050.72 OBBI

ID Type Via Altitude Latitude Longitude Leg Dist Tot Dist Heading (true) Name
O OMDB APT - 0 ft / 0 m 25.26649˚ 55.34702˚ - 0 nm - -
+25.30_+055.28 LATLON - 37,000 ft / 11,278 m 25.30430˚ 55.27878˚ 4 nm 4 nm 302° / 301° -
+25.32_+055.22 LATLON - 37,000 ft / 11,278 m 25.31583˚ 55.21602˚ 3 nm 7 nm 282° / 281° -
+25.61_+053.85 LATLON - 37,000 ft / 11,278 m 25.60621˚ 53.84758˚ 76 nm 84 nm 284° / 283° -
+25.88_+052.47 LATLON - 35,500 ft / 10,820 m 25.88457˚ 52.47425˚ 76 nm 160 nm 283° / 282° -
+26.21_+050.78 LATLON - 410 ft / 125 m 26.20932˚ 50.78094˚ 93 nm 253 nm 282° / 282° -
+26.22_+050.72 LATLON - 120 ft / 37 m 26.22211˚ 50.71801˚ 3 nm 257 nm 283° / 283° -
O OBBI APT - 0 ft / 0 m 26.26128˚ 50.65017˚ 4 nm 261 nm 303° / 303° -

Altitude Profile

Advertisement - Login to hide

Weather


0- 5 10 15 20 25 30 35+ Temperature / ° C

Clouds and Precipitation
Forecast for 2017-12-18 12:00 UTC. Updated 2 hours ago

Ground ~20,000 ft ~40,000 ft Winds

OMDB

Details ICAO OMDB (DXB)
Name DUBAI INTL
Region United Arab Emirates
Timezone Asia/Dubai (UTC+4.0)
Stats Elevation 62 ft / 19 m (AMSL)
Location 25.254912° 55.364260°
Runways 2
Magnetic Variation 2.047° E

METAR

OMDB 181100Z 32011KT 300V010 9999 SCT035 23/13 Q1020 NOSIG

Decode

TAF

TAF OMDB 180456Z 1806/1912 08007KT 8000 FEW040 PROB30 TEMPO 1806/1815 VRB20G35KT 1500 TSRA BLDU SCT040CB BECMG 1808/1810 33013KT BECMG 1815/1817 06005KT BECMG 1907/1909 34010KT

Decode

Departure Runways

ID Width Length Bearing (true) Bearing (mag) Surface Threshold Offset Overrun Length
12L 197 ft / 60 m 13,124 ft / 4,000 m 121.49° 119.44° Asphalt 1,312 ft / 400 m 395 ft / 120 m
12R 151 ft / 46 m 13,139 ft / 4,005 m 121.48° 119.43° Asphalt 394 ft / 120 m 197 ft / 60 m
30L 151 ft / 46 m 13,139 ft / 4,005 m 301.50° 299.45° Asphalt 2,953 ft / 900 m 197 ft / 60 m
30R 197 ft / 60 m 13,124 ft / 4,000 m 301.51° 299.46° Asphalt 0 ft / 0 m 395 ft / 120 m

OBBI

Details ICAO OBBI (BAH)
Name BAHRAIN INTL
Region Bahrain
Timezone Asia/Bahrain (UTC+3.0)
Stats Elevation 6 ft / 2 m (AMSL)
Location 26.267837° 50.637095°
Runways 2
Magnetic Variation 2.762° E

METAR

OBBI 181100Z 36013KT CAVOK 24/12 Q1021 NOSIG

Decode

TAF

TAF OBBI 180500Z 1806/1912 34010KT 9999 FEW030= TAF OMAA 180500Z 1806/1912 VRB02KT 8000 FEW040 BECMG 1806/1807 35012KT PROB30 TEMPO 1806/1808 VRB15G25KT 4500 BLDU FEW050TCU BECMG 1818/1820 VRB02KT BECMG 1905/1907 35010KT

Decode

Destination Runways

ID Width Length Bearing (true) Bearing (mag) Surface Threshold Offset Overrun Length
12L 197 ft / 60 m 12,893 ft / 3,930 m 122.74° 119.98° Asphalt 1,000 ft / 305 m 0 ft / 0 m
12R 148 ft / 45 m 8,303 ft / 2,531 m 122.76° 120.00° Asphalt 1,000 ft / 305 m 0 ft / 0 m
30L 148 ft / 45 m 8,303 ft / 2,531 m 302.77° 300.01° Asphalt 395 ft / 120 m 0 ft / 0 m
30R 197 ft / 60 m 12,893 ft / 3,930 m 302.75° 299.99° Asphalt 1,000 ft / 305 m 0 ft / 0 m

Approach Navaids

Runway Type Ident Frequency Range Bearing (true) Bearing (mag) Slope Elevation
12L Localiser IBIB 111.50 MHz 18 nm / 33 km 122.74° 119.98° - 6 ft / 2 m (AMSL)
12L Glidescope IBIB 111.50 MHz 10 nm / 19 km 122.75° 119.98° 3.00° 6 ft / 2 m (AMSL)
12L DME IBIB 111.50 MHz 18 nm / 33 km - - - 42 ft / 13 m (AMSL)
30R Localiser IBIA 110.30 MHz 18 nm / 33 km 302.77° 300.01° - 6 ft / 2 m (AMSL)
30R Glidescope IBIA 110.30 MHz 10 nm / 19 km 302.75° 299.98° 3.00° 6 ft / 2 m (AMSL)
30R DME IBIA 110.30 MHz 18 nm / 33 km - - - 42 ft / 13 m (AMSL)

Popular Alternatives